createdAt,value
2022-11-22T00:02:03.406Z,2.20
2022-11-22T00:04:30.100Z,2.10
2022-11-22T00:06:56.692Z,2.20
2022-11-22T00:09:23.289Z,2.20
2022-11-22T00:11:49.871Z,2.30
2022-11-22T00:14:16.606Z,2.40
2022-11-22T00:16:43.215Z,2.40
2022-11-22T00:19:09.960Z,2.40
2022-11-22T00:21:36.584Z,2.40
2022-11-22T00:24:03.248Z,2.60
2022-11-22T00:26:29.951Z,2.50
2022-11-22T00:28:57.266Z,2.50
2022-11-22T00:31:23.907Z,2.60
2022-11-22T00:33:50.508Z,2.60
2022-11-22T00:36:17.272Z,2.60
2022-11-22T00:38:44.129Z,2.70
2022-11-22T00:41:10.795Z,2.70
2022-11-22T00:43:37.404Z,2.70
2022-11-22T00:46:04.023Z,2.70
2022-11-22T00:48:30.670Z,2.80
2022-11-22T00:50:57.282Z,2.60
2022-11-22T00:53:23.882Z,2.70
2022-11-22T00:55:50.498Z,2.80
2022-11-22T00:58:17.100Z,2.80
2022-11-22T01:00:43.794Z,2.70
2022-11-22T01:03:11.270Z,2.80
2022-11-22T01:05:38.257Z,2.90
2022-11-22T01:08:04.876Z,3.00
2022-11-22T01:10:31.540Z,2.90
2022-11-22T01:12:58.413Z,2.90
2022-11-22T01:15:25.031Z,2.90
2022-11-22T01:17:51.646Z,2.90
2022-11-22T01:20:18.343Z,3.00
2022-11-22T01:22:44.949Z,3.10
2022-11-22T01:25:11.654Z,3.30
2022-11-22T01:27:38.414Z,3.40
2022-11-22T01:30:05.387Z,3.30
2022-11-22T01:32:32.021Z,3.30
2022-11-22T01:34:58.608Z,3.40
2022-11-22T01:37:25.299Z,3.50
2022-11-22T01:39:51.898Z,3.50
2022-11-22T01:42:18.521Z,3.60
2022-11-22T01:44:47.624Z,3.50
2022-11-22T01:47:23.845Z,3.70
2022-11-22T01:49:50.431Z,3.70
2022-11-22T01:52:21.792Z,3.60
2022-11-22T01:54:51.694Z,3.50
2022-11-22T01:57:20.797Z,3.60
2022-11-22T01:59:49.876Z,3.60
2022-11-22T02:02:16.555Z,3.50
2022-11-22T02:04:43.670Z,3.40
2022-11-22T02:07:18.026Z,3.30
2022-11-22T02:09:44.948Z,3.40
2022-11-22T02:12:12.087Z,3.50
2022-11-22T02:14:39.160Z,3.60
2022-11-22T02:17:06.007Z,3.80
2022-11-22T02:19:40.545Z,3.70
2022-11-22T02:22:30.179Z,3.60
2022-11-22T02:24:59.494Z,3.70
2022-11-22T02:27:26.208Z,3.70
2022-11-22T02:29:52.967Z,3.80
2022-11-22T02:32:19.959Z,3.90
2022-11-22T02:34:50.177Z,3.90
2022-11-22T02:37:25.416Z,3.90
2022-11-22T02:39:56.231Z,4.00
2022-11-22T02:42:24.083Z,3.90
2022-11-22T02:44:50.692Z,4.00
2022-11-22T02:47:17.414Z,4.10
2022-11-22T02:49:44.283Z,4.00
2022-11-22T02:52:10.891Z,4.00
2022-11-22T02:54:37.480Z,4.10
2022-11-22T02:57:04.119Z,4.10
2022-11-22T02:59:31.168Z,4.10
2022-11-22T03:02:02.959Z,4.10
2022-11-22T03:04:30.268Z,4.10
2022-11-22T03:06:58.127Z,4.20
2022-11-22T03:09:25.440Z,4.10
2022-11-22T03:11:52.271Z,4.10
2022-11-22T03:14:19.146Z,4.10
2022-11-22T03:16:46.306Z,4.10
2022-11-22T03:19:13.671Z,4.20
2022-11-22T03:21:41.076Z,4.30
2022-11-22T03:24:08.063Z,4.20
2022-11-22T03:26:35.261Z,4.40
2022-11-22T03:29:02.071Z,4.30
2022-11-22T03:31:28.668Z,4.20
2022-11-22T03:33:55.609Z,4.30
2022-11-22T03:36:22.281Z,4.40
2022-11-22T03:38:50.446Z,4.50
2022-11-22T03:41:17.103Z,4.40
2022-11-22T03:43:43.723Z,4.50
2022-11-22T03:46:14.391Z,4.60
2022-11-22T03:48:41.056Z,4.60
2022-11-22T03:51:07.748Z,4.60
2022-11-22T03:53:34.431Z,4.60
2022-11-22T03:56:01.131Z,4.50
2022-11-22T03:58:27.793Z,4.60
2022-11-22T04:00:54.434Z,4.60
2022-11-22T04:03:21.054Z,4.60
2022-11-22T04:05:47.681Z,4.60
2022-11-22T04:08:14.354Z,4.50
2022-11-22T04:10:40.969Z,4.60
2022-11-22T04:13:07.956Z,4.60
2022-11-22T04:15:34.576Z,4.50
2022-11-22T04:18:01.179Z,4.60
2022-11-22T04:20:47.765Z,4.60
2022-11-22T04:23:14.404Z,4.60
2022-11-22T04:25:46.031Z,4.70
2022-11-22T04:28:13.136Z,4.70
2022-11-22T04:30:58.665Z,4.70
2022-11-22T04:33:25.320Z,4.60
2022-11-22T04:35:51.970Z,4.70
2022-11-22T04:38:19.079Z,4.70
2022-11-22T04:40:45.691Z,4.60
2022-11-22T04:43:47.722Z,4.70
2022-11-22T04:46:15.213Z,4.50
2022-11-22T04:48:42.310Z,4.50
2022-11-22T04:51:30.040Z,4.60
2022-11-22T04:53:56.657Z,4.70
2022-11-22T04:56:23.381Z,4.80
2022-11-22T04:58:51.395Z,4.90
2022-11-22T05:01:18.421Z,4.80
2022-11-22T05:03:45.092Z,4.90
2022-11-22T05:06:13.017Z,5.00
2022-11-22T05:08:39.640Z,5.00
2022-11-22T05:11:06.236Z,5.10
2022-11-22T05:13:34.131Z,5.10
2022-11-22T05:16:01.189Z,5.10
2022-11-22T05:18:28.656Z,5.10
2022-11-22T05:20:55.766Z,5.10
2022-11-22T05:23:41.138Z,5.10
2022-11-22T05:26:08.537Z,5.20
2022-11-22T05:28:35.960Z,5.10
2022-11-22T05:31:06.358Z,5.10
2022-11-22T05:33:33.004Z,5.20
2022-11-22T05:36:00.212Z,5.10
2022-11-22T05:38:26.937Z,5.20
2022-11-22T05:40:53.566Z,5.20
2022-11-22T05:43:20.208Z,5.20
2022-11-22T05:45:46.818Z,5.20
2022-11-22T05:48:13.426Z,5.10
2022-11-22T05:50:40.059Z,5.20
2022-11-22T05:53:06.661Z,5.20
2022-11-22T05:55:33.273Z,5.00
2022-11-22T05:58:04.313Z,5.10
2022-11-22T06:00:31.696Z,5.20
2022-11-22T06:03:01.745Z,5.20
2022-11-22T06:05:28.854Z,5.10
2022-11-22T06:08:02.818Z,5.10
2022-11-22T06:10:29.504Z,5.20
2022-11-22T06:12:56.155Z,5.40
2022-11-22T06:15:22.773Z,5.20
2022-11-22T06:17:49.436Z,5.30
2022-11-22T06:20:16.249Z,5.30
2022-11-22T06:22:42.854Z,5.30
2022-11-22T06:25:09.715Z,5.30
2022-11-22T06:27:36.395Z,5.40
2022-11-22T06:30:03.102Z,5.30
2022-11-22T06:32:32.204Z,5.20
2022-11-22T06:34:58.807Z,5.40
2022-11-22T06:37:25.499Z,5.30
2022-11-22T06:39:52.270Z,5.40
2022-11-22T06:42:18.844Z,5.30
2022-11-22T06:44:45.454Z,5.30
2022-11-22T06:47:12.088Z,5.40
2022-11-22T06:49:38.698Z,5.40
2022-11-22T06:52:05.465Z,5.50
2022-11-22T06:54:32.063Z,5.40
2022-11-22T06:56:58.683Z,5.40
2022-11-22T06:59:25.306Z,5.50
2022-11-22T07:01:51.955Z,5.40
2022-11-22T07:04:18.707Z,5.50
2022-11-22T07:06:45.714Z,5.50
2022-11-22T07:09:12.445Z,5.60
2022-11-22T07:11:39.599Z,5.60
2022-11-22T07:14:08.562Z,5.50
2022-11-22T07:16:36.832Z,5.50
2022-11-22T07:19:03.746Z,5.40
2022-11-22T07:21:30.559Z,5.50
2022-11-22T07:23:57.240Z,5.50
2022-11-22T07:26:24.490Z,5.40
2022-11-22T07:28:51.204Z,5.40
2022-11-22T07:31:18.410Z,5.40
2022-11-22T07:33:47.042Z,5.50
2022-11-22T07:36:18.268Z,5.40
2022-11-22T07:38:46.312Z,5.40
2022-11-22T07:41:13.312Z,5.40
2022-11-22T07:43:40.292Z,5.40
2022-11-22T07:46:12.737Z,5.50
2022-11-22T07:48:39.381Z,5.40
2022-11-22T07:51:06.964Z,5.40
2022-11-22T07:53:34.722Z,5.50
2022-11-22T07:56:02.597Z,5.40
2022-11-22T07:58:29.256Z,5.50
2022-11-22T08:00:55.884Z,5.60
2022-11-22T08:03:27.169Z,5.50
2022-11-22T08:06:02.245Z,5.40
2022-11-22T08:08:29.052Z,5.60
2022-11-22T08:10:55.691Z,5.40
2022-11-22T08:13:22.437Z,5.40
2022-11-22T08:15:49.566Z,5.60
2022-11-22T08:18:16.674Z,5.40
2022-11-22T08:20:43.430Z,5.50
2022-11-22T08:23:10.371Z,5.60
2022-11-22T08:25:36.975Z,5.50
2022-11-22T08:28:03.627Z,5.60
2022-11-22T08:30:30.235Z,5.70
2022-11-22T08:32:56.918Z,5.70
2022-11-22T08:35:23.626Z,5.70
2022-11-22T08:37:50.230Z,5.70
2022-11-22T08:40:16.930Z,5.80
2022-11-22T08:42:43.546Z,5.70
2022-11-22T08:45:10.244Z,5.80
2022-11-22T08:47:36.847Z,5.80
2022-11-22T08:50:03.606Z,5.80
2022-11-22T08:52:30.229Z,5.70
2022-11-22T08:54:56.818Z,5.90
2022-11-22T08:57:23.422Z,5.80
2022-11-22T08:59:50.019Z,5.70
2022-11-22T09:02:16.626Z,5.70
2022-11-22T09:04:43.235Z,5.70
2022-11-22T09:09:56.907Z,5.70
2022-11-22T09:12:23.670Z,5.60
2022-11-22T09:14:50.257Z,5.70
2022-11-22T09:17:18.218Z,5.80
2022-11-22T09:19:45.061Z,5.80
2022-11-22T09:22:11.657Z,6.00
2022-11-22T09:24:38.266Z,6.00
2022-11-22T09:27:04.951Z,6.00
2022-11-22T09:29:31.774Z,5.90
2022-11-22T09:31:58.694Z,6.10
2022-11-22T09:34:25.323Z,6.10
2022-11-22T09:36:51.902Z,5.90
2022-11-22T09:39:18.518Z,5.90
2022-11-22T09:41:51.214Z,6.00
2022-11-22T09:44:23.335Z,6.10
2022-11-22T09:46:56.537Z,6.10
2022-11-22T09:49:23.172Z,6.10
2022-11-22T09:51:53.793Z,6.10
2022-11-22T09:54:24.065Z,6.30
2022-11-22T09:56:52.542Z,6.10
2022-11-22T09:59:24.648Z,6.30
2022-11-22T10:01:51.285Z,6.40
2022-11-22T10:04:22.572Z,6.30
2022-11-22T10:06:58.676Z,6.30
2022-11-22T10:09:25.811Z,6.20
2022-11-22T10:11:55.314Z,6.10
2022-11-22T10:14:40.796Z,6.30
2022-11-22T10:17:07.372Z,6.20
2022-11-22T10:19:44.869Z,6.10
2022-11-22T10:22:14.818Z,6.10
2022-11-22T10:24:42.338Z,6.30
2022-11-22T10:27:13.864Z,5.90
2022-11-22T10:29:40.468Z,6.10
2022-11-22T10:32:23.816Z,6.00
2022-11-22T10:34:59.749Z,5.90
2022-11-22T10:37:51.493Z,6.00
2022-11-22T10:40:38.307Z,6.20
2022-11-22T10:43:11.139Z,6.20
2022-11-22T10:45:42.484Z,6.10
2022-11-22T10:48:27.486Z,6.20
2022-11-22T10:50:54.044Z,6.20
2022-11-22T10:53:30.789Z,6.30
2022-11-22T10:56:00.378Z,6.50
2022-11-22T10:58:26.983Z,6.50
2022-11-22T11:00:58.738Z,6.50
2022-11-22T11:03:35.820Z,6.50
2022-11-22T11:06:24.447Z,6.40
2022-11-22T11:11:45.416Z,6.40
2022-11-22T11:14:32.512Z,6.40
2022-11-22T11:16:59.882Z,6.40
2022-11-22T11:19:29.186Z,6.30
2022-11-22T11:22:12.844Z,6.40
2022-11-22T11:24:40.484Z,6.70
2022-11-22T11:27:07.675Z,6.60
2022-11-22T11:29:45.751Z,6.70
2022-11-22T11:32:13.720Z,6.60
2022-11-22T11:34:41.923Z,6.60
2022-11-22T11:37:17.342Z,6.40
2022-11-22T11:39:46.186Z,6.40
2022-11-22T11:42:26.624Z,6.40
2022-11-22T11:44:53.655Z,6.40
2022-11-22T11:47:31.938Z,6.40
2022-11-22T11:49:58.637Z,6.40
2022-11-22T11:52:26.673Z,6.30
2022-11-22T11:54:54.173Z,6.40
2022-11-22T11:57:36.815Z,6.50
2022-11-22T12:00:05.915Z,6.10
2022-11-22T12:02:41.188Z,6.00
2022-11-22T12:05:13.927Z,6.00
2022-11-22T12:07:45.229Z,6.10
2022-11-22T12:10:30.924Z,6.10
2022-11-22T12:13:09.989Z,6.40
2022-11-22T12:15:43.836Z,6.10
2022-11-22T12:18:27.564Z,6.30
2022-11-22T12:21:00.392Z,6.10
2022-11-22T12:26:33.335Z,5.90
2022-11-22T12:29:00.096Z,5.70
2022-11-22T12:31:32.231Z,5.60
2022-11-22T12:34:00.750Z,5.70
2022-11-22T12:36:38.770Z,5.60
2022-11-22T12:39:06.570Z,5.50
2022-11-22T12:41:34.381Z,5.60
2022-11-22T12:44:01.998Z,5.60
2022-11-22T12:46:40.260Z,5.80
2022-11-22T12:48:23.136Z,5.90
2022-11-22T12:49:15.528Z,5.80
2022-11-22T12:52:05.442Z,5.80
2022-11-22T12:54:33.611Z,5.80
2022-11-22T12:57:04.791Z,5.70
2022-11-22T12:59:41.195Z,5.60
2022-11-22T13:02:26.424Z,5.70
2022-11-22T13:04:58.800Z,5.60
2022-11-22T13:07:33.273Z,5.50
2022-11-22T13:10:03.479Z,5.60
2022-11-22T13:12:32.762Z,5.50
2022-11-22T13:14:59.643Z,5.50
2022-11-22T13:17:29.894Z,5.50
2022-11-22T13:20:07.889Z,5.50
2022-11-22T13:22:53.063Z,5.60
2022-11-22T13:25:38.516Z,5.80
2022-11-22T13:28:16.777Z,5.70
2022-11-22T13:31:02.255Z,5.70
2022-11-22T13:33:28.983Z,5.70
2022-11-22T13:36:15.546Z,5.60
2022-11-22T13:38:43.516Z,5.70
2022-11-22T13:41:21.699Z,5.80
2022-11-22T13:43:53.868Z,5.80
2022-11-22T13:46:39.472Z,5.70
2022-11-22T13:49:18.252Z,5.70
2022-11-22T13:51:58.048Z,5.60
2022-11-22T13:54:34.062Z,5.60
2022-11-22T13:57:04.796Z,5.60
2022-11-22T13:59:31.905Z,5.60
2022-11-22T14:02:00.074Z,5.60
2022-11-22T14:04:27.178Z,5.60
2022-11-22T14:06:57.626Z,5.60
2022-11-22T14:09:32.144Z,5.60
2022-11-22T14:11:58.756Z,5.80
2022-11-22T14:14:48.997Z,5.60
2022-11-22T14:17:28.344Z,5.70
2022-11-22T14:19:54.956Z,5.70
2022-11-22T14:22:39.989Z,5.50
2022-11-22T14:25:10.269Z,5.40
2022-11-22T14:27:43.017Z,5.40
2022-11-22T14:30:14.936Z,5.40
2022-11-22T14:33:00.123Z,5.40
2022-11-22T14:35:30.330Z,5.40
2022-11-22T14:37:57.651Z,5.50
2022-11-22T14:40:37.603Z,5.50
2022-11-22T14:43:05.969Z,5.60
2022-11-22T14:45:41.885Z,5.60
2022-11-22T14:48:11.728Z,5.40
2022-11-22T14:50:38.347Z,5.30
2022-11-22T14:53:25.238Z,5.20
2022-11-22T14:55:54.307Z,5.20
2022-11-22T14:58:26.841Z,5.20
2022-11-22T15:01:14.908Z,5.20
2022-11-22T15:03:47.713Z,5.10
2022-11-22T15:09:13.291Z,5.10
2022-11-22T15:12:27.081Z,5.00
2022-11-22T15:57:44.819Z,4.90
2022-11-22T16:00:22.863Z,4.90
2022-11-22T16:02:50.829Z,4.90
2022-11-22T16:06:06.775Z,5.00
2022-11-22T16:08:12.919Z,4.90
2022-11-22T16:10:42.474Z,5.00
2022-11-22T16:13:18.246Z,4.90
2022-11-22T16:15:45.019Z,4.80
2022-11-22T16:18:26.826Z,4.80
2022-11-22T16:20:59.459Z,4.90
2022-11-22T16:23:29.893Z,4.90
2022-11-22T16:25:57.563Z,4.80
2022-11-22T16:28:31.729Z,4.90
2022-11-22T16:31:17.313Z,4.80
2022-11-22T16:33:44.483Z,4.80
2022-11-22T16:36:13.039Z,4.70
2022-11-22T16:38:39.698Z,4.70
2022-11-22T16:41:10.282Z,4.70
2022-11-22T16:43:36.884Z,4.70
2022-11-22T16:46:03.725Z,4.80
2022-11-22T16:48:32.670Z,4.70
2022-11-22T16:51:19.995Z,4.80
2022-11-22T16:53:47.906Z,4.70
2022-11-22T16:56:22.119Z,4.70
2022-11-22T16:58:49.735Z,4.60
2022-11-22T17:01:21.428Z,4.50
2022-11-22T17:03:49.195Z,4.60
2022-11-22T17:06:18.404Z,4.50
2022-11-22T17:08:46.162Z,4.50
2022-11-22T17:11:14.147Z,4.50
2022-11-22T17:13:40.752Z,4.50
2022-11-22T17:16:09.063Z,4.50
2022-11-22T17:18:35.666Z,4.50
2022-11-22T17:21:02.450Z,4.50
2022-11-22T17:23:30.894Z,4.40
2022-11-22T17:25:57.545Z,4.50
2022-11-22T17:28:24.385Z,4.50
2022-11-22T17:30:51.280Z,4.50
2022-11-22T17:33:17.865Z,4.40
2022-11-22T17:35:44.679Z,4.50
2022-11-22T17:38:11.421Z,4.50
2022-11-22T17:40:38.377Z,4.50
2022-11-22T17:43:05.082Z,4.40
2022-11-22T17:45:31.764Z,4.50
2022-11-22T17:47:58.355Z,4.40
2022-11-22T17:50:25.076Z,4.50
2022-11-22T17:52:51.993Z,4.60
2022-11-22T17:55:18.694Z,4.40
2022-11-22T17:57:45.283Z,4.40
2022-11-22T18:00:12.192Z,4.50
2022-11-22T18:02:38.970Z,4.50
2022-11-22T18:05:08.330Z,4.50
2022-11-22T18:07:35.572Z,4.60
2022-11-22T18:10:02.385Z,4.40
2022-11-22T18:12:29.027Z,4.50
2022-11-22T18:14:55.652Z,4.50
2022-11-22T18:17:22.891Z,4.70
2022-11-22T18:19:49.518Z,4.60
2022-11-22T18:22:16.202Z,4.70
2022-11-22T18:24:42.880Z,4.80
2022-11-22T18:27:09.487Z,4.70
2022-11-22T18:29:42.232Z,4.60
2022-11-22T18:32:09.658Z,4.60
2022-11-22T18:34:36.371Z,4.70
2022-11-22T18:37:04.535Z,4.40
2022-11-22T18:39:35.846Z,4.40
2022-11-22T18:42:04.257Z,4.20
2022-11-22T18:44:30.956Z,4.20
2022-11-22T18:46:57.578Z,4.10
2022-11-22T18:49:24.342Z,4.00
2022-11-22T18:51:50.986Z,4.00
2022-11-22T18:54:18.257Z,4.00
2022-11-22T18:56:44.928Z,4.00
2022-11-22T18:59:12.799Z,4.10
2022-11-22T19:01:40.065Z,4.00
2022-11-22T19:04:06.771Z,4.00
2022-11-22T19:06:33.393Z,3.90
2022-11-22T19:09:00.887Z,4.20
2022-11-22T19:11:28.673Z,4.30
2022-11-22T19:13:55.327Z,4.20
2022-11-22T19:16:22.628Z,4.30
2022-11-22T19:18:49.671Z,4.30
2022-11-22T19:21:17.614Z,4.10
2022-11-22T19:23:44.503Z,4.00
2022-11-22T19:26:12.098Z,4.10
2022-11-22T19:28:38.792Z,4.10
2022-11-22T19:31:15.038Z,4.10
2022-11-22T19:33:41.820Z,4.20
2022-11-22T19:36:12.606Z,4.10
2022-11-22T19:38:39.208Z,3.90
2022-11-22T19:41:09.680Z,4.10
2022-11-22T19:43:36.742Z,3.90
2022-11-22T19:46:04.112Z,3.80
2022-11-22T19:48:31.276Z,3.80
2022-11-22T19:50:58.123Z,3.60
2022-11-22T19:53:24.755Z,3.60
2022-11-22T19:55:51.411Z,4.00
2022-11-22T19:58:20.251Z,4.30
2022-11-22T20:00:47.364Z,4.10
2022-11-22T20:03:14.026Z,4.20
2022-11-22T20:05:41.569Z,4.10
2022-11-22T20:08:08.358Z,4.20
2022-11-22T20:10:35.295Z,3.90
2022-11-22T20:13:02.880Z,4.00
2022-11-22T20:15:30.299Z,4.00
2022-11-22T20:17:56.913Z,3.90
2022-11-22T20:20:23.525Z,3.80
2022-11-22T20:22:50.139Z,3.80
2022-11-22T20:25:17.132Z,3.70
2022-11-22T20:27:43.752Z,3.90
2022-11-22T20:30:11.285Z,3.80
2022-11-22T20:32:39.851Z,3.80
2022-11-22T20:35:06.572Z,3.70
2022-11-22T20:37:35.371Z,3.80
2022-11-22T20:40:01.971Z,3.80
2022-11-22T20:42:35.659Z,4.00
2022-11-22T20:45:08.303Z,3.90
2022-11-22T20:47:35.463Z,3.90
2022-11-22T20:50:02.160Z,3.80
2022-11-22T20:52:28.780Z,3.80
2022-11-22T20:54:57.132Z,3.90
2022-11-22T20:57:27.903Z,3.80
2022-11-22T20:59:54.677Z,3.80
2022-11-22T21:02:21.274Z,3.80
2022-11-22T21:04:47.947Z,3.90
2022-11-22T21:07:14.633Z,3.90
2022-11-22T21:09:41.263Z,3.90
2022-11-22T21:12:07.922Z,4.00
2022-11-22T21:14:34.723Z,4.10
2022-11-22T21:17:22.614Z,4.20
2022-11-22T21:19:47.980Z,4.00
2022-11-22T21:22:14.635Z,3.90
2022-11-22T21:24:41.357Z,4.00
2022-11-22T21:27:08.053Z,3.90
2022-11-22T21:29:34.978Z,3.90
2022-11-22T21:32:01.660Z,3.90
2022-11-22T21:34:28.487Z,4.00
2022-11-22T21:36:55.296Z,4.00
2022-11-22T21:39:22.288Z,4.00
2022-11-22T21:41:48.907Z,3.90
2022-11-22T21:44:15.535Z,4.00
2022-11-22T21:46:43.674Z,4.00
2022-11-22T21:49:10.287Z,4.10
2022-11-22T21:51:36.947Z,4.10
2022-11-22T21:54:04.317Z,4.10
2022-11-22T21:56:31.574Z,4.10
2022-11-22T21:58:58.413Z,4.10
2022-11-22T22:01:25.406Z,4.10
2022-11-22T22:03:52.172Z,4.20
2022-11-22T22:06:18.918Z,4.20
2022-11-22T22:08:45.627Z,4.10
2022-11-22T22:11:12.469Z,4.10
2022-11-22T22:13:39.250Z,4.20
2022-11-22T22:16:07.183Z,4.20
2022-11-22T22:18:34.804Z,4.10
2022-11-22T22:21:05.999Z,4.00
2022-11-22T22:23:36.870Z,4.10
2022-11-22T22:26:04.656Z,4.10
2022-11-22T22:28:32.218Z,4.20
2022-11-22T22:31:12.449Z,4.00
2022-11-22T22:33:40.210Z,4.00
2022-11-22T22:36:08.267Z,4.10
2022-11-22T22:38:34.969Z,4.10
2022-11-22T22:41:03.633Z,4.20
2022-11-22T22:43:31.214Z,4.20
2022-11-22T22:46:06.418Z,4.30
2022-11-22T22:48:33.650Z,4.20
2022-11-22T22:51:07.599Z,4.20
2022-11-22T22:53:34.962Z,4.20
2022-11-22T22:56:01.582Z,4.10
2022-11-22T22:58:28.385Z,4.10
2022-11-22T23:00:55.135Z,4.20
2022-11-22T23:03:21.843Z,4.10
2022-11-22T23:05:48.508Z,4.20
2022-11-22T23:08:15.206Z,4.20
2022-11-22T23:10:42.265Z,4.20
2022-11-22T23:13:08.921Z,4.20
2022-11-22T23:15:57.440Z,4.30
2022-11-22T23:18:24.749Z,4.30
2022-11-22T23:20:51.357Z,4.50
2022-11-22T23:23:18.115Z,4.40
2022-11-22T23:25:44.724Z,4.30
2022-11-22T23:28:11.346Z,4.30
2022-11-22T23:30:37.939Z,4.40
2022-11-22T23:33:04.543Z,4.40
2022-11-22T23:35:33.827Z,4.30
2022-11-22T23:38:00.443Z,4.30
2022-11-22T23:40:27.088Z,4.40
2022-11-22T23:42:56.127Z,4.40
2022-11-22T23:45:22.734Z,4.40
2022-11-22T23:47:52.391Z,4.40
2022-11-22T23:50:19.388Z,4.50
2022-11-22T23:52:46.014Z,4.50
2022-11-22T23:55:12.644Z,4.30
2022-11-22T23:57:39.401Z,4.40
